Time;durP1;ratioP1;P1;durP2;ratioP2;P2;SDS_P1;SDS_P2;PMS_P1;PMS_P2;Temp;Humidity;BMP_temperature;BMP_pressure;BME280_temperature;BME280_humidity;BME280_pressure;Samples;Min_cycle;Max_cycle;Signal;HPM_P1;HPM_P2
2022/03/26 00:00:11;;;;;;;36.55;19.27;;;;;;;;;;4973249;28;20043;-66
2022/03/26 00:02:39;;;;;;;34.10;19.52;;;;;;;;;;4973313;28;20070;-67
2022/03/26 00:05:07;;;;;;;38.15;21.05;;;;;;;;;;4973258;28;20043;-66
2022/03/26 00:07:34;;;;;;;37.90;19.77;;;;;;;;;;4973288;28;20042;-65
2022/03/26 00:10:01;;;;;;;39.08;21.25;;;;;;;;;;4973221;28;20053;-66
2022/03/26 00:12:28;;;;;;;37.30;21.23;;;;;;;;;;4973349;28;20057;-66
2022/03/26 00:14:55;;;;;;;37.72;20.80;;;;;;;;;;4973217;28;20055;-66
2022/03/26 00:17:22;;;;;;;32.17;19.83;;;;;;;;;;4973514;28;20130;-66
2022/03/26 00:19:51;;;;;;;36.25;20.15;;;;;;;;;;4973721;28;20134;-66
2022/03/26 00:22:18;;;;;;;38.17;21.17;;;;;;;;;;4976787;28;20090;-67
2022/03/26 00:24:45;;;;;;;39.40;20.95;;;;;;;;;;4976959;28;20051;-66
2022/03/26 00:27:12;;;;;;;35.70;20.63;;;;;;;;;;4977045;28;20467;-66
2022/03/26 00:29:39;;;;;;;39.85;20.85;;;;;;;;;;4976602;28;20059;-65
2022/03/26 00:32:07;;;;;;;39.95;21.85;;;;;;;;;;4976843;28;20057;-69
2022/03/26 00:34:35;;;;;;;37.83;20.67;;;;;;;;;;4976977;28;20086;-67
2022/03/26 00:37:03;;;;;;;37.78;21.60;;;;;;;;;;4976687;28;20066;-66
2022/03/26 00:39:30;;;;;;;37.28;20.67;;;;;;;;;;4976569;28;20047;-66
2022/03/26 00:41:58;;;;;;;38.17;22.00;;;;;;;;;;4976540;28;20504;-66
2022/03/26 00:44:24;;;;;;;36.17;20.85;;;;;;;;;;4976397;28;20069;-66
2022/03/26 00:46:52;;;;;;;38.60;22.25;;;;;;;;;;4976326;28;20053;-67
2022/03/26 00:49:20;;;;;;;36.70;20.40;;;;;;;;;;4976347;28;20062;-65
2022/03/26 00:51:47;;;;;;;36.83;20.60;;;;;;;;;;4976396;28;20499;-66
2022/03/26 00:54:15;;;;;;;37.22;20.85;;;;;;;;;;4976522;28;20051;-66
2022/03/26 00:56:43;;;;;;;36.58;20.95;;;;;;;;;;4976721;28;20050;-66
2022/03/26 00:59:10;;;;;;;35.80;20.73;;;;;;;;;;4976226;28;20504;-67
2022/03/26 01:01:38;;;;;;;38.78;20.40;;;;;;;;;;4976128;28;20051;-66
2022/03/26 01:04:05;;;;;;;36.78;20.52;;;;;;;;;;4976141;28;20053;-66
2022/03/26 01:06:32;;;;;;;38.58;20.48;;;;;;;;;;4975980;28;20047;-66
2022/03/26 01:08:59;;;;;;;38.63;22.75;;;;;;;;;;4976143;28;20054;-66
2022/03/26 01:11:28;;;;;;;37.00;20.08;;;;;;;;;;4975976;28;20444;-66
2022/03/26 01:13:56;;;;;;;37.63;21.30;;;;;;;;;;4976126;28;20078;-68
2022/03/26 01:16:24;;;;;;;38.60;20.88;;;;;;;;;;4975988;28;20047;-66
2022/03/26 01:18:51;;;;;;;39.70;21.13;;;;;;;;;;4976052;28;20051;-66
2022/03/26 01:21:18;;;;;;;37.80;22.42;;;;;;;;;;4975585;28;20054;-66
2022/03/26 01:23:46;;;;;;;38.35;21.88;;;;;;;;;;4976003;28;20137;-67
2022/03/26 01:26:14;;;;;;;38.03;21.83;;;;;;;;;;4975954;28;20571;-67
2022/03/26 01:28:43;;;;;;;41.33;22.98;;;;;;;;;;4975621;28;20133;-66
2022/03/26 01:31:10;;;;;;;38.42;21.48;;;;;;;;;;4975431;28;20132;-66
2022/03/26 01:33:37;;;;;;;37.85;21.65;;;;;;;;;;4975238;28;20141;-66
2022/03/26 01:36:05;;;;;;;40.33;21.63;;;;;;;;;;4975589;28;20051;-65
2022/03/26 01:38:32;;;;;;;38.13;20.92;;;;;;;;;;4975435;28;20086;-67
2022/03/26 01:40:59;;;;;;;36.88;21.90;;;;;;;;;;4975739;28;20069;-65
2022/03/26 01:43:26;;;;;;;40.95;21.73;;;;;;;;;;4975290;28;20105;-66
2022/03/26 01:45:55;;;;;;;40.97;21.23;;;;;;;;;;4975508;28;20078;-65
2022/03/26 01:48:22;;;;;;;39.25;20.75;;;;;;;;;;4975468;28;20082;-65
2022/03/26 01:50:48;;;;;;;36.75;20.73;;;;;;;;;;4975143;28;20496;-66
2022/03/26 01:53:16;;;;;;;36.78;21.15;;;;;;;;;;4975351;28;20313;-66
2022/03/26 01:55:43;;;;;;;37.10;20.67;;;;;;;;;;4975633;28;20113;-66
2022/03/26 01:58:10;;;;;;;41.90;21.70;;;;;;;;;;4975422;28;20129;-66
2022/03/26 02:00:37;;;;;;;40.55;22.52;;;;;;;;;;4975412;28;20473;-66
2022/03/26 02:03:07;;;;;;;41.20;22.70;;;;;;;;;;4975361;28;20138;-66
2022/03/26 02:05:34;;;;;;;40.00;20.60;;;;;;;;;;4975439;28;20408;-66
2022/03/26 02:08:03;;;;;;;34.17;20.25;;;;;;;;;;4975515;28;20407;-66
2022/03/26 02:10:30;;;;;;;41.47;22.00;;;;;;;;;;4974973;28;20055;-67
2022/03/26 02:12:58;;;;;;;37.70;20.73;;;;;;;;;;4974785;28;20053;-66
2022/03/26 02:15:25;;;;;;;39.95;22.17;;;;;;;;;;4974983;28;20504;-66
2022/03/26 02:17:52;;;;;;;40.10;21.65;;;;;;;;;;4974799;28;20102;-66
2022/03/26 02:20:22;;;;;;;40.17;22.42;;;;;;;;;;4975323;28;20074;-66
2022/03/26 02:22:50;;;;;;;39.45;21.42;;;;;;;;;;4974543;28;20043;-65
2022/03/26 02:25:17;;;;;;;40.95;22.63;;;;;;;;;;4974840;28;20124;-67
2022/03/26 02:27:45;;;;;;;38.92;21.25;;;;;;;;;;4974690;28;20145;-66
2022/03/26 02:30:12;;;;;;;38.38;20.85;;;;;;;;;;4974450;28;20082;-66
2022/03/26 02:32:39;;;;;;;38.47;21.40;;;;;;;;;;4974425;28;20057;-64
2022/03/26 02:35:07;;;;;;;37.58;20.98;;;;;;;;;;4974534;28;20050;-66
2022/03/26 02:37:36;;;;;;;36.25;20.40;;;;;;;;;;4974443;28;20129;-66
2022/03/26 02:40:07;;;;;;;37.90;21.02;;;;;;;;;;4974595;28;20126;-66
2022/03/26 02:42:34;;;;;;;40.10;21.92;;;;;;;;;;4974594;28;20563;-65
2022/03/26 02:45:02;;;;;;;43.08;21.02;;;;;;;;;;4973297;28;20497;-66
2022/03/26 02:47:29;;;;;;;36.88;20.38;;;;;;;;;;4974689;28;20535;-67
2022/03/26 02:49:56;;;;;;;39.97;21.33;;;;;;;;;;4974158;28;20142;-65
2022/03/26 02:52:23;;;;;;;41.13;19.92;;;;;;;;;;4974126;28;20078;-66
2022/03/26 02:54:53;;;;;;;37.50;20.60;;;;;;;;;;4974723;28;20463;-66
2022/03/26 02:57:20;;;;;;;38.63;20.88;;;;;;;;;;4973897;28;20058;-66
2022/03/26 02:59:47;;;;;;;41.45;22.42;;;;;;;;;;4973891;28;20056;-65
2022/03/26 03:02:14;;;;;;;37.78;20.83;;;;;;;;;;4973919;28;20050;-66
2022/03/26 03:04:42;;;;;;;38.00;20.92;;;;;;;;;;4973950;28;20078;-66
2022/03/26 03:07:09;;;;;;;38.90;21.30;;;;;;;;;;4973790;28;20055;-66
2022/03/26 03:09:37;;;;;;;38.47;20.60;;;;;;;;;;4973650;28;20053;-67
2022/03/26 03:12:06;;;;;;;40.63;22.05;;;;;;;;;;4973970;28;20057;-66
2022/03/26 03:14:35;;;;;;;37.53;21.88;;;;;;;;;;4973613;28;20178;-66
2022/03/26 03:17:02;;;;;;;40.08;21.73;;;;;;;;;;4973561;28;20057;-66
2022/03/26 03:19:29;;;;;;;37.90;20.88;;;;;;;;;;4973686;28;20090;-66
2022/03/26 03:21:56;;;;;;;35.85;20.27;;;;;;;;;;4973719;28;20130;-66
2022/03/26 03:24:23;;;;;;;36.22;20.52;;;;;;;;;;4974073;28;20051;-65
2022/03/26 03:26:50;;;;;;;37.80;20.35;;;;;;;;;;4973924;28;20054;-66
2022/03/26 03:29:18;;;;;;;39.40;20.52;;;;;;;;;;4973488;28;20141;-64
2022/03/26 03:31:48;;;;;;;43.53;20.98;;;;;;;;;;4973498;28;20074;-66
2022/03/26 03:34:15;;;;;;;42.00;21.27;;;;;;;;;;4973409;28;20046;-67
2022/03/26 03:36:42;;;;;;;38.53;20.88;;;;;;;;;;4973593;28;20488;-65
2022/03/26 03:39:09;;;;;;;41.22;23.05;;;;;;;;;;4973284;28;20051;-66
2022/03/26 03:41:36;;;;;;;39.33;21.45;;;;;;;;;;4973457;28;20515;-66
2022/03/26 03:44:03;;;;;;;40.67;21.75;;;;;;;;;;4973296;28;20050;-67
2022/03/26 03:46:33;;;;;;;38.08;21.50;;;;;;;;;;4973558;28;20133;-66
2022/03/26 03:49:00;;;;;;;37.22;20.13;;;;;;;;;;4973808;28;20392;-66
2022/03/26 03:51:27;;;;;;;36.58;19.92;;;;;;;;;;4973348;28;20073;-67
2022/03/26 03:53:54;;;;;;;43.15;20.60;;;;;;;;;;4973327;28;20412;-66
2022/03/26 03:56:21;;;;;;;37.47;20.17;;;;;;;;;;4976547;28;20053;-65
2022/03/26 03:58:48;;;;;;;37.83;20.58;;;;;;;;;;4977544;28;20051;-65
2022/03/26 04:01:15;;;;;;;37.10;20.42;;;;;;;;;;4977537;28;20133;-66
2022/03/26 04:03:44;;;;;;;38.83;21.50;;;;;;;;;;4977204;28;20133;-64
2022/03/26 04:06:11;;;;;;;38.15;19.73;;;;;;;;;;4977345;28;20133;-66
2022/03/26 04:08:38;;;;;;;37.70;20.02;;;;;;;;;;4977237;28;20055;-66
2022/03/26 04:11:05;;;;;;;41.50;21.13;;;;;;;;;;4977203;28;20544;-67
2022/03/26 04:13:32;;;;;;;36.83;19.52;;;;;;;;;;4976975;28;20114;-66
2022/03/26 04:15:59;;;;;;;39.90;19.83;;;;;;;;;;4977086;28;20158;-66
2022/03/26 04:18:26;;;;;;;37.92;21.73;;;;;;;;;;4977159;28;20057;-66
2022/03/26 04:20:55;;;;;;;39.03;21.00;;;;;;;;;;4976858;28;20134;-65
2022/03/26 04:23:22;;;;;;;37.08;21.23;;;;;;;;;;4976790;28;20086;-67
2022/03/26 04:25:49;;;;;;;42.13;20.95;;;;;;;;;;4976851;28;20053;-65
2022/03/26 04:30:48;;;;;;;39.10;21.60;;;;;;;;;;4993077;23;20409;-77
2022/03/26 04:33:15;;;;;;;40.08;21.65;;;;;;;;;;4976978;28;20501;-77
2022/03/26 04:35:42;;;;;;;38.85;20.83;;;;;;;;;;4976652;28;20568;-77
2022/03/26 04:38:10;;;;;;;37.42;20.50;;;;;;;;;;4976890;28;20058;-77
2022/03/26 04:40:37;;;;;;;41.33;20.88;;;;;;;;;;4976609;28;20498;-77
2022/03/26 04:43:04;;;;;;;39.80;20.42;;;;;;;;;;4977315;28;20394;-77
2022/03/26 04:45:32;;;;;;;39.92;21.30;;;;;;;;;;4976492;28;20059;-77
2022/03/26 04:47:58;;;;;;;36.28;20.45;;;;;;;;;;4977080;28;20051;-77
2022/03/26 04:50:26;;;;;;;39.65;21.75;;;;;;;;;;4976840;28;20050;-77
2022/03/26 04:52:53;;;;;;;38.70;20.95;;;;;;;;;;4977005;28;20414;-77
2022/03/26 04:55:21;;;;;;;37.33;20.45;;;;;;;;;;4977138;28;20054;-77
2022/03/26 04:57:49;;;;;;;38.30;21.13;;;;;;;;;;4977612;28;20517;-77
2022/03/26 05:00:18;;;;;;;39.70;21.42;;;;;;;;;;4978353;28;20089;-80
2022/03/26 05:02:45;;;;;;;42.83;20.10;;;;;;;;;;4990125;28;20043;-76
2022/03/26 05:05:13;;;;;;;41.42;21.38;;;;;;;;;;4993276;28;20051;-77
2022/03/26 05:07:46;;;;;;;39.60;21.67;;;;;;;;;;4989655;28;20055;-77
2022/03/26 05:10:13;;;;;;;35.80;19.08;;;;;;;;;;4989062;28;20054;-76
2022/03/26 05:12:42;;;;;;;40.22;21.45;;;;;;;;;;4980438;28;20561;-77
2022/03/26 05:15:10;;;;;;;38.55;21.08;;;;;;;;;;4977118;28;20134;-77
2022/03/26 05:17:37;;;;;;;40.53;20.35;;;;;;;;;;4977320;28;20105;-78
2022/03/26 05:20:04;;;;;;;36.75;20.27;;;;;;;;;;4975936;28;20114;-77
2022/03/26 05:22:31;;;;;;;39.00;21.05;;;;;;;;;;4975835;28;20043;-76
2022/03/26 05:24:58;;;;;;;37.67;20.75;;;;;;;;;;4975864;28;20055;-77
2022/03/26 05:27:25;;;;;;;38.33;21.60;;;;;;;;;;4975735;28;20366;-77
2022/03/26 05:29:53;;;;;;;40.65;20.42;;;;;;;;;;4975579;28;20121;-77
2022/03/26 05:32:20;;;;;;;37.80;20.27;;;;;;;;;;4975776;28;20053;-77
2022/03/26 05:34:47;;;;;;;37.75;21.50;;;;;;;;;;4975390;28;20051;-77
2022/03/26 05:37:14;;;;;;;46.30;22.63;;;;;;;;;;4975898;28;20494;-77
2022/03/26 05:39:41;;;;;;;38.72;21.10;;;;;;;;;;4975931;28;20078;-77
2022/03/26 05:42:09;;;;;;;42.38;22.45;;;;;;;;;;4976892;28;20051;-80
2022/03/26 05:44:36;;;;;;;37.50;20.95;;;;;;;;;;4970673;28;20043;-77
2022/03/26 05:47:05;;;;;;;39.38;21.15;;;;;;;;;;4956088;29;20054;-77
2022/03/26 05:49:31;;;;;;;42.78;21.52;;;;;;;;;;4956024;28;20058;-77
2022/03/26 05:51:58;;;;;;;36.33;20.50;;;;;;;;;;4955974;28;20051;-77
2022/03/26 05:54:25;;;;;;;43.13;21.42;;;;;;;;;;4955882;28;20055;-78
2022/03/26 05:56:52;;;;;;;39.50;21.48;;;;;;;;;;4956136;29;20138;-78
2022/03/26 05:59:21;;;;;;;38.72;20.05;;;;;;;;;;4956623;28;20114;-77
2022/03/26 06:01:48;;;;;;;39.78;20.33;;;;;;;;;;4969913;29;20078;-77
2022/03/26 06:04:16;;;;;;;36.90;20.77;;;;;;;;;;4976351;29;20047;-78
2022/03/26 06:06:43;;;;;;;37.17;21.35;;;;;;;;;;4963536;28;20110;-79
2022/03/26 06:09:10;;;;;;;39.28;20.48;;;;;;;;;;4956811;29;20455;-77
2022/03/26 06:11:37;;;;;;;42.10;22.80;;;;;;;;;;4956998;29;20101;-79
2022/03/26 06:14:06;;;;;;;38.80;20.67;;;;;;;;;;4957168;29;20047;-78
2022/03/26 06:16:34;;;;;;;39.75;21.30;;;;;;;;;;4956876;29;20089;-78
2022/03/26 06:19:01;;;;;;;40.03;22.08;;;;;;;;;;4956271;28;20047;-78
2022/03/26 06:21:30;;;;;;;37.55;21.70;;;;;;;;;;4956371;29;20054;-79
2022/03/26 06:23:58;;;;;;;38.05;21.52;;;;;;;;;;4957002;29;20118;-77
2022/03/26 06:26:26;;;;;;;41.05;21.40;;;;;;;;;;4956657;29;20053;-78
2022/03/26 06:28:52;;;;;;;40.47;23.10;;;;;;;;;;4956772;29;20055;-77
2022/03/26 06:31:20;;;;;;;42.75;22.48;;;;;;;;;;4956318;29;20051;-78
2022/03/26 06:33:47;;;;;;;35.83;21.17;;;;;;;;;;4956293;29;20047;-78
2022/03/26 06:36:14;;;;;;;38.50;20.95;;;;;;;;;;4956012;29;20059;-78
2022/03/26 06:38:44;;;;;;;40.90;21.08;;;;;;;;;;4956884;29;20075;-78
2022/03/26 06:41:11;;;;;;;39.95;21.75;;;;;;;;;;4956220;29;20051;-77
2022/03/26 06:43:38;;;;;;;41.95;22.33;;;;;;;;;;4956327;28;20059;-77
2022/03/26 06:46:05;;;;;;;38.85;21.55;;;;;;;;;;4972575;28;20054;-78
2022/03/26 06:48:33;;;;;;;38.17;22.38;;;;;;;;;;4974899;28;20050;-78
2022/03/26 06:51:01;;;;;;;42.50;22.42;;;;;;;;;;4975866;28;20055;-78
2022/03/26 06:53:28;;;;;;;43.63;23.23;;;;;;;;;;4975574;28;20134;-78
2022/03/26 06:55:56;;;;;;;41.00;22.38;;;;;;;;;;4975325;28;20047;-78
2022/03/26 06:58:23;;;;;;;42.08;24.58;;;;;;;;;;4975421;28;20524;-78
2022/03/26 07:00:50;;;;;;;49.78;24.08;;;;;;;;;;4975305;28;20427;-77
2022/03/26 07:03:17;;;;;;;38.70;22.30;;;;;;;;;;4974295;28;20081;-77
2022/03/26 07:05:45;;;;;;;41.88;22.17;;;;;;;;;;4974480;28;20053;-76
2022/03/26 07:08:12;;;;;;;42.58;21.95;;;;;;;;;;4974265;28;20051;-78
2022/03/26 07:10:41;;;;;;;45.08;23.85;;;;;;;;;;4975177;28;20055;-77
2022/03/26 07:13:09;;;;;;;42.13;22.80;;;;;;;;;;4975005;28;20046;-77
2022/03/26 07:15:36;;;;;;;43.85;23.45;;;;;;;;;;4974737;28;20047;-78
2022/03/26 07:18:03;;;;;;;43.17;22.67;;;;;;;;;;4975475;28;20046;-78
2022/03/26 07:20:30;;;;;;;43.55;24.60;;;;;;;;;;4974702;28;20052;-78
2022/03/26 07:22:56;;;;;;;40.90;22.27;;;;;;;;;;4975285;28;20057;-77
2022/03/26 07:25:23;;;;;;;40.17;22.10;;;;;;;;;;4974567;28;20513;-77
2022/03/26 07:27:51;;;;;;;45.30;26.10;;;;;;;;;;4974378;28;20445;-77
2022/03/26 07:30:19;;;;;;;46.72;25.92;;;;;;;;;;4973915;28;20437;-77
2022/03/26 07:32:46;;;;;;;45.47;23.15;;;;;;;;;;4975032;28;20106;-78
2022/03/26 07:35:13;;;;;;;40.00;22.80;;;;;;;;;;4974390;28;20058;-78
2022/03/26 07:37:40;;;;;;;43.63;20.83;;;;;;;;;;4974918;28;20142;-78
2022/03/26 07:40:08;;;;;;;39.45;21.83;;;;;;;;;;4975759;28;20486;-77
2022/03/26 07:42:35;;;;;;;41.60;21.85;;;;;;;;;;4975198;28;20054;-78
2022/03/26 07:45:02;;;;;;;38.33;20.80;;;;;;;;;;4966470;28;20055;-78
2022/03/26 07:47:30;;;;;;;41.58;22.52;;;;;;;;;;4955890;29;20047;-77
2022/03/26 07:49:57;;;;;;;34.67;20.40;;;;;;;;;;4955372;29;20047;-78
2022/03/26 07:52:24;;;;;;;38.20;22.05;;;;;;;;;;4955692;28;20055;-78
2022/03/26 07:54:51;;;;;;;37.72;21.25;;;;;;;;;;4955431;28;20051;-78
2022/03/26 07:57:18;;;;;;;39.70;22.25;;;;;;;;;;4956598;28;20047;-78
2022/03/26 07:59:44;;;;;;;39.35;21.85;;;;;;;;;;4957240;28;20048;-78
2022/03/26 08:02:11;;;;;;;38.65;21.67;;;;;;;;;;4955485;28;20387;-78
2022/03/26 08:04:40;;;;;;;38.55;21.42;;;;;;;;;;4958460;28;20048;-79
2022/03/26 08:07:07;;;;;;;38.95;21.90;;;;;;;;;;4961537;29;20055;-79
2022/03/26 08:09:34;;;;;;;37.38;20.85;;;;;;;;;;4961132;29;20494;-79
2022/03/26 08:12:01;;;;;;;38.55;21.40;;;;;;;;;;4961197;28;20129;-79
2022/03/26 08:14:28;;;;;;;40.75;22.88;;;;;;;;;;4963456;28;20055;-79
2022/03/26 08:16:55;;;;;;;40.47;22.70;;;;;;;;;;4962529;28;20059;-79
2022/03/26 08:19:22;;;;;;;41.55;22.08;;;;;;;;;;4962178;28;20060;-79
2022/03/26 08:21:51;;;;;;;42.67;21.83;;;;;;;;;;4961921;29;20086;-79
2022/03/26 08:24:18;;;;;;;38.35;21.70;;;;;;;;;;4963639;29;20062;-78
2022/03/26 08:26:45;;;;;;;44.58;25.75;;;;;;;;;;4962494;29;20044;-79
2022/03/26 08:29:11;;;;;;;39.20;22.38;;;;;;;;;;4962396;28;20106;-79
2022/03/26 08:31:38;;;;;;;42.63;22.98;;;;;;;;;;4961055;29;20063;-79
2022/03/26 08:34:05;;;;;;;41.78;22.10;;;;;;;;;;4957638;29;20047;-79
2022/03/26 08:36:32;;;;;;;40.47;21.40;;;;;;;;;;4957161;28;20055;-79
2022/03/26 08:39:01;;;;;;;40.70;21.95;;;;;;;;;;4956000;29;20048;-79
2022/03/26 08:41:28;;;;;;;42.67;23.00;;;;;;;;;;4958217;28;20054;-79
2022/03/26 08:43:55;;;;;;;38.67;22.17;;;;;;;;;;4960864;29;20051;-78
2022/03/26 08:46:22;;;;;;;38.85;21.88;;;;;;;;;;4960176;29;20054;-78
2022/03/26 08:48:50;;;;;;;47.63;25.38;;;;;;;;;;4960159;29;20051;-78
2022/03/26 08:51:17;;;;;;;40.03;22.38;;;;;;;;;;4967842;29;20075;-78
2022/03/26 08:53:44;;;;;;;44.88;24.45;;;;;;;;;;4968660;28;20051;-78
2022/03/26 08:56:12;;;;;;;37.78;21.80;;;;;;;;;;4959342;29;20057;-78
2022/03/26 08:58:40;;;;;;;40.20;22.05;;;;;;;;;;4960350;29;20051;-79
2022/03/26 09:01:07;;;;;;;40.33;23.15;;;;;;;;;;4959125;29;20070;-79
2022/03/26 09:03:37;;;;;;;40.60;23.30;;;;;;;;;;4959731;28;20047;-79
2022/03/26 09:06:06;;;;;;;39.85;21.13;;;;;;;;;;4959348;29;20047;-79
2022/03/26 09:08:33;;;;;;;41.92;21.92;;;;;;;;;;4960309;29;20055;-79
2022/03/26 09:11:00;;;;;;;38.22;21.10;;;;;;;;;;4963850;29;20051;-79
2022/03/26 09:13:28;;;;;;;40.10;22.70;;;;;;;;;;4977796;28;20087;-79
2022/03/26 09:15:55;;;;;;;39.92;22.15;;;;;;;;;;4977074;29;20047;-78
2022/03/26 09:18:23;;;;;;;52.08;27.38;;;;;;;;;;4968374;29;20051;-79
2022/03/26 09:20:49;;;;;;;49.70;26.90;;;;;;;;;;4964731;28;20111;-79
2022/03/26 09:23:16;;;;;;;60.15;29.50;;;;;;;;;;4963643;28;20102;-78
2022/03/26 09:25:43;;;;;;;37.08;21.27;;;;;;;;;;4960892;28;20051;-78
2022/03/26 09:28:10;;;;;;;42.63;24.52;;;;;;;;;;4959583;28;20557;-78
2022/03/26 09:30:39;;;;;;;40.00;21.98;;;;;;;;;;4957816;29;20051;-78
2022/03/26 09:33:06;;;;;;;40.03;21.70;;;;;;;;;;4960789;28;20062;-78
2022/03/26 09:35:33;;;;;;;39.35;22.33;;;;;;;;;;4960573;28;20115;-78
2022/03/26 09:38:00;;;;;;;38.08;21.98;;;;;;;;;;4957806;29;20483;-78
2022/03/26 09:40:27;;;;;;;42.88;23.58;;;;;;;;;;4958739;28;20196;-78
2022/03/26 09:42:54;;;;;;;41.35;22.42;;;;;;;;;;4959210;29;20055;-78
2022/03/26 09:45:22;;;;;;;40.78;22.40;;;;;;;;;;4958240;29;20051;-77
2022/03/26 09:47:52;;;;;;;40.58;21.85;;;;;;;;;;4957472;29;20525;-76
2022/03/26 09:50:21;;;;;;;39.03;22.38;;;;;;;;;;4957018;29;20055;-77
2022/03/26 09:52:49;;;;;;;37.05;21.35;;;;;;;;;;4955599;28;20145;-77
2022/03/26 09:55:19;;;;;;;38.47;23.70;;;;;;;;;;4957288;28;20051;-77
2022/03/26 09:57:50;;;;;;;39.83;22.80;;;;;;;;;;4956644;29;20415;-77
2022/03/26 10:00:17;;;;;;;42.17;21.48;;;;;;;;;;4956560;29;20051;-78
2022/03/26 10:02:44;;;;;;;43.28;22.92;;;;;;;;;;4957029;29;20066;-80
2022/03/26 10:05:12;;;;;;;39.63;22.80;;;;;;;;;;4959054;28;20058;-81
2022/03/26 10:07:40;;;;;;;38.78;23.38;;;;;;;;;;4960354;28;20043;-82
2022/03/26 10:10:07;;;;;;;41.88;21.95;;;;;;;;;;4958277;28;20055;-80
2022/03/26 10:12:34;;;;;;;39.17;23.67;;;;;;;;;;4965171;28;20082;-81
2022/03/26 10:15:04;;;;;;;41.53;22.58;;;;;;;;;;4959964;28;20051;-81
2022/03/26 10:17:33;;;;;;;40.42;22.05;;;;;;;;;;4959974;28;20324;-81
2022/03/26 10:20:03;;;;;;;40.10;21.98;;;;;;;;;;4958695;28;20052;-81
2022/03/26 10:22:34;;;;;;;42.15;23.13;;;;;;;;;;4957927;28;20054;-79
2022/03/26 10:25:04;;;;;;;37.22;22.50;;;;;;;;;;4959078;29;20054;-80
2022/03/26 10:27:38;;;;;;;42.22;22.80;;;;;;;;;;4965596;28;20047;-81
2022/03/26 10:30:06;;;;;;;39.22;22.25;;;;;;;;;;4969446;28;20051;-80
2022/03/26 10:32:39;;;;;;;40.97;22.27;;;;;;;;;;4963120;28;20051;-82
2022/03/26 10:35:10;;;;;;;40.30;23.30;;;;;;;;;;4960490;28;20047;-82
2022/03/26 10:37:49;;;;;;;37.08;21.58;;;;;;;;;;4988146;23;20054;-66
2022/03/26 10:40:22;;;;;;;37.83;21.60;;;;;;;;;;4944332;29;20055;-66
2022/03/26 10:42:57;;;;;;;37.10;23.23;;;;;;;;;;4944144;29;20130;-66
2022/03/26 10:45:25;;;;;;;33.65;19.92;;;;;;;;;;4945470;29;20129;-66
2022/03/26 10:47:55;;;;;;;43.10;22.42;;;;;;;;;;4944597;29;20077;-67
2022/03/26 10:50:22;;;;;;;40.17;23.50;;;;;;;;;;4945079;29;20051;-67
2022/03/26 10:52:55;;;;;;;38.47;21.20;;;;;;;;;;4944841;29;20048;-67
2022/03/26 10:55:23;;;;;;;40.15;22.20;;;;;;;;;;4946415;29;20075;-66
2022/03/26 10:57:50;;;;;;;42.00;29.70;;;;;;;;;;4942308;29;20044;-65
2022/03/26 11:00:21;;;;;;;41.67;23.50;;;;;;;;;;4942231;29;20266;-66
2022/03/26 11:02:49;;;;;;;38.53;21.75;;;;;;;;;;4945057;29;20039;-66
2022/03/26 11:05:16;;;;;;;37.70;21.05;;;;;;;;;;4942845;29;20055;-66
2022/03/26 11:07:44;;;;;;;38.40;21.42;;;;;;;;;;4943460;29;20127;-66
2022/03/26 11:10:14;;;;;;;39.13;21.88;;;;;;;;;;4942632;29;20095;-67
2022/03/26 11:12:45;;;;;;;33.95;21.08;;;;;;;;;;4944242;29;20048;-66
2022/03/26 11:15:19;;;;;;;37.92;22.63;;;;;;;;;;4941895;29;20122;-66
2022/03/26 11:18:10;;;;;;;35.72;21.13;;;;;;;;;;4946204;29;20123;-66
2022/03/26 11:21:18;;;;;;;36.88;21.40;;;;;;;;;;4943548;29;20044;-67
2022/03/26 11:24:19;;;;;;;33.63;19.60;;;;;;;;;;4946009;29;20067;-67
2022/03/26 11:27:04;;;;;;;31.70;19.38;;;;;;;;;;4915977;29;20051;-66
2022/03/26 11:29:57;;;;;;;33.47;19.67;;;;;;;;;;4940848;29;20107;-66
2022/03/26 11:32:30;;;;;;;32.60;19.75;;;;;;;;;;4940368;29;20067;-67
2022/03/26 11:35:01;;;;;;;31.30;19.08;;;;;;;;;;4942148;29;20048;-67
2022/03/26 11:37:27;;;;;;;;;;;;;;;;;;4947072;29;20116;-67
2022/03/26 11:39:57;;;;;;;30.70;18.20;;;;;;;;;;4937561;29;19971;-66
2022/03/26 11:42:34;;;;;;;32.40;18.02;;;;;;;;;;4944949;29;20043;-67
2022/03/26 11:50:46;;;;;;;32.63;19.67;;;;;;;;;;4937737;29;20523;-67
2022/03/26 11:53:15;;;;;;;33.30;19.73;;;;;;;;;;4943861;29;20425;-66
2022/03/26 11:55:44;;;;;;;33.83;20.42;;;;;;;;;;4942389;29;20044;-67
2022/03/26 11:58:20;;;;;;;31.98;19.60;;;;;;;;;;4946256;29;20052;-67
2022/03/26 12:00:57;;;;;;;37.92;20.17;;;;;;;;;;4947135;29;20385;-67
2022/03/26 12:03:25;;;;;;;32.67;19.65;;;;;;;;;;4937336;29;20050;-67
2022/03/26 12:08:42;;;;;;;33.93;21.20;;;;;;;;;;4928998;29;20054;-66
2022/03/26 12:11:13;;;;;;;38.22;18.92;;;;;;;;;;4936006;29;20405;-66
2022/03/26 12:13:59;;;;;;;34.53;19.02;;;;;;;;;;4935799;29;20054;-66
2022/03/26 12:16:56;;;;;;;33.83;19.08;;;;;;;;;;4937481;29;20083;-67
2022/03/26 12:19:41;;;;;;;32.83;19.92;;;;;;;;;;4939317;29;20090;-67
2022/03/26 12:22:23;;;;;;;33.03;19.00;;;;;;;;;;4939468;29;20398;-67
2022/03/26 12:24:50;;;;;;;33.25;19.40;;;;;;;;;;4939750;29;20407;-68
2022/03/26 12:27:18;;;;;;;30.83;18.90;;;;;;;;;;4939628;29;20081;-65
2022/03/26 12:29:47;;;;;;;30.50;19.52;;;;;;;;;;4939070;29;20449;-67
2022/03/26 12:32:14;;;;;;;31.50;18.15;;;;;;;;;;4939237;29;20054;-67
2022/03/26 12:34:54;;;;;;;32.95;19.33;;;;;;;;;;4939243;29;20054;-66
2022/03/26 12:37:22;;;;;;;30.60;19.38;;;;;;;;;;4939711;29;20056;-67
2022/03/26 12:39:50;;;;;;;29.63;19.85;;;;;;;;;;4939063;29;20048;-66
2022/03/26 12:42:17;;;;;;;30.33;18.77;;;;;;;;;;4939021;29;20805;-66
2022/03/26 12:44:46;;;;;;;30.02;18.67;;;;;;;;;;4938726;29;20051;-66
2022/03/26 12:47:17;;;;;;;28.65;18.80;;;;;;;;;;4938942;29;20074;-67
2022/03/26 12:49:47;;;;;;;31.08;19.60;;;;;;;;;;4938462;29;20520;-67
2022/03/26 12:52:17;;;;;;;30.20;19.83;;;;;;;;;;4938865;29;20433;-67
2022/03/26 12:54:44;;;;;;;30.13;19.80;;;;;;;;;;4938914;29;20070;-67
2022/03/26 12:57:12;;;;;;;31.67;19.05;;;;;;;;;;4938768;29;20050;-66
2022/03/26 12:59:39;;;;;;;31.17;19.10;;;;;;;;;;4938717;29;20138;-66
2022/03/26 13:02:10;;;;;;;30.88;18.77;;;;;;;;;;4938422;29;20058;-65
2022/03/26 13:04:38;;;;;;;31.13;18.85;;;;;;;;;;4938691;29;20052;-67
2022/03/26 13:07:05;;;;;;;33.55;19.38;;;;;;;;;;4938326;29;20066;-67
2022/03/26 13:09:32;;;;;;;28.65;19.02;;;;;;;;;;4938264;29;20052;-66
2022/03/26 13:11:59;;;;;;;35.08;22.40;;;;;;;;;;4938415;29;20043;-66
2022/03/26 13:14:26;;;;;;;35.35;22.35;;;;;;;;;;4937814;29;20047;-65
2022/03/26 13:16:54;;;;;;;30.35;18.92;;;;;;;;;;4938386;29;20063;-68
2022/03/26 13:19:22;;;;;;;32.13;19.98;;;;;;;;;;4937419;29;20130;-66
2022/03/26 13:21:51;;;;;;;29.42;19.77;;;;;;;;;;4938059;29;20048;-68
2022/03/26 13:24:20;;;;;;;30.33;19.05;;;;;;;;;;4937410;29;20063;-68
2022/03/26 13:26:49;;;;;;;29.30;19.13;;;;;;;;;;4937915;29;20058;-68
2022/03/26 13:29:18;;;;;;;30.05;19.05;;;;;;;;;;4937005;29;20281;-67
2022/03/26 13:31:48;;;;;;;27.02;18.67;;;;;;;;;;4937342;29;20051;-66
2022/03/26 13:34:16;;;;;;;27.65;18.13;;;;;;;;;;4937239;29;20048;-67
2022/03/26 13:36:47;;;;;;;26.42;17.65;;;;;;;;;;4937053;29;20047;-66
2022/03/26 13:39:15;;;;;;;30.95;19.33;;;;;;;;;;4937706;29;20413;-66
2022/03/26 13:41:42;;;;;;;28.13;17.48;;;;;;;;;;4937232;29;20096;-68
2022/03/26 13:44:12;;;;;;;28.85;18.30;;;;;;;;;;4937248;29;20051;-66
2022/03/26 13:46:39;;;;;;;28.77;19.23;;;;;;;;;;4937091;29;20531;-67
2022/03/26 13:49:06;;;;;;;26.27;17.90;;;;;;;;;;4937305;29;20055;-67
2022/03/26 13:51:37;;;;;;;28.25;19.02;;;;;;;;;;4936832;29;20055;-66
2022/03/26 13:54:07;;;;;;;26.55;17.92;;;;;;;;;;4937132;29;20064;-66
2022/03/26 13:56:36;;;;;;;29.23;18.75;;;;;;;;;;4936796;29;20043;-65
2022/03/26 13:59:05;;;;;;;25.65;17.95;;;;;;;;;;4936674;29;20394;-66
2022/03/26 14:01:37;;;;;;;24.23;16.60;;;;;;;;;;4936508;29;20057;-67
2022/03/26 14:04:04;;;;;;;27.10;17.15;;;;;;;;;;4936645;29;20052;-67
2022/03/26 14:06:31;;;;;;;23.17;16.75;;;;;;;;;;4936797;29;20048;-67
2022/03/26 14:09:02;;;;;;;23.38;17.10;;;;;;;;;;4936279;29;20052;-66
2022/03/26 14:11:30;;;;;;;29.80;18.65;;;;;;;;;;4936376;29;20469;-67
2022/03/26 14:13:57;;;;;;;26.90;18.90;;;;;;;;;;4936347;29;20048;-67
2022/03/26 14:16:24;;;;;;;25.95;18.15;;;;;;;;;;4936379;29;20143;-67
2022/03/26 14:18:51;;;;;;;26.50;17.67;;;;;;;;;;4936278;29;20048;-67
2022/03/26 14:21:18;;;;;;;26.55;18.23;;;;;;;;;;4936497;29;20134;-68
2022/03/26 14:23:45;;;;;;;24.60;17.80;;;;;;;;;;4936492;29;20055;-66
2022/03/26 14:26:12;;;;;;;25.38;18.40;;;;;;;;;;4936657;29;20568;-67
2022/03/26 14:28:41;;;;;;;24.05;16.90;;;;;;;;;;4936537;29;20224;-67
2022/03/26 14:31:08;;;;;;;22.27;17.15;;;;;;;;;;4935955;29;20556;-67
2022/03/26 14:33:36;;;;;;;24.02;16.35;;;;;;;;;;4935978;29;20143;-66
2022/03/26 14:36:04;;;;;;;26.65;17.60;;;;;;;;;;4935684;29;20051;-67